sensor_id;sensor_type;location;lat;lon;timestamp;temperature;humidity
1175;DHT22;576;48.418;10.074;2023-11-21T00:01:23;23.30;64.70
1175;DHT22;576;48.418;10.074;2023-11-21T00:03:52;23.30;64.70
1175;DHT22;576;48.418;10.074;2023-11-21T00:06:22;23.20;64.70
1175;DHT22;576;48.418;10.074;2023-11-21T00:08:50;23.20;64.70
1175;DHT22;576;48.418;10.074;2023-11-21T00:11:18;23.20;64.70
1175;DHT22;576;48.418;10.074;2023-11-21T00:13:46;23.20;64.70
1175;DHT22;576;48.418;10.074;2023-11-21T00:16:17;23.20;64.70
1175;DHT22;576;48.418;10.074;2023-11-21T00:18:45;23.20;64.70
1175;DHT22;576;48.418;10.074;2023-11-21T00:21:15;23.20;64.70
1175;DHT22;576;48.418;10.074;2023-11-21T00:23:43;23.20;64.70
1175;DHT22;576;48.418;10.074;2023-11-21T00:26:12;23.20;64.70
1175;DHT22;576;48.418;10.074;2023-11-21T00:28:44;23.10;64.70
1175;DHT22;576;48.418;10.074;2023-11-21T00:31:13;23.10;64.70
1175;DHT22;576;48.418;10.074;2023-11-21T00:33:41;23.10;64.70
1175;DHT22;576;48.418;10.074;2023-11-21T00:36:10;23.10;64.70
1175;DHT22;576;48.418;10.074;2023-11-21T00:38:41;23.10;64.70
1175;DHT22;576;48.418;10.074;2023-11-21T00:41:09;23.10;64.70
1175;DHT22;576;48.418;10.074;2023-11-21T00:43:37;23.10;64.70
1175;DHT22;576;48.418;10.074;2023-11-21T00:46:06;23.10;64.70
1175;DHT22;576;48.418;10.074;2023-11-21T00:48:35;23.10;64.70
1175;DHT22;576;48.418;10.074;2023-11-21T00:51:03;23.10;64.80
1175;DHT22;576;48.418;10.074;2023-11-21T00:53:33;23.10;64.80
1175;DHT22;576;48.418;10.074;2023-11-21T00:56:03;23.10;64.80
1175;DHT22;576;48.418;10.074;2023-11-21T00:58:31;23.10;64.80
1175;DHT22;576;48.418;10.074;2023-11-21T01:00:59;23.00;64.80
1175;DHT22;576;48.418;10.074;2023-11-21T01:03:27;23.00;64.80
1175;DHT22;576;48.418;10.074;2023-11-21T01:05:56;23.00;64.80
1175;DHT22;576;48.418;10.074;2023-11-21T01:08:24;23.00;64.80
1175;DHT22;576;48.418;10.074;2023-11-21T01:10:53;23.00;64.80
1175;DHT22;576;48.418;10.074;2023-11-21T01:13:23;23.00;64.70
1175;DHT22;576;48.418;10.074;2023-11-21T01:15:56;23.00;64.60
1175;DHT22;576;48.418;10.074;2023-11-21T01:18:24;23.00;64.60
1175;DHT22;576;48.418;10.074;2023-11-21T01:20:53;23.00;64.30
1175;DHT22;576;48.418;10.074;2023-11-21T01:23:21;23.00;64.40
1175;DHT22;576;48.418;10.074;2023-11-21T01:25:49;22.90;64.60
1175;DHT22;576;48.418;10.074;2023-11-21T01:28:18;22.90;64.70
1175;DHT22;576;48.418;10.074;2023-11-21T01:30:48;22.90;64.50
1175;DHT22;576;48.418;10.074;2023-11-21T01:33:17;22.90;64.80
1175;DHT22;576;48.418;10.074;2023-11-21T01:35:45;22.90;64.70
1175;DHT22;576;48.418;10.074;2023-11-21T01:38:14;22.90;64.80
1175;DHT22;576;48.418;10.074;2023-11-21T01:40:44;22.90;64.70
1175;DHT22;576;48.418;10.074;2023-11-21T01:43:12;22.90;64.80
1175;DHT22;576;48.418;10.074;2023-11-21T01:45:40;22.90;64.70
1175;DHT22;576;48.418;10.074;2023-11-21T01:48:10;22.90;64.80
1175;DHT22;576;48.418;10.074;2023-11-21T01:50:39;22.80;64.60
1175;DHT22;576;48.418;10.074;2023-11-21T01:53:08;22.80;64.60
1175;DHT22;576;48.418;10.074;2023-11-21T01:55:36;22.80;64.80
1175;DHT22;576;48.418;10.074;2023-11-21T01:58:05;22.80;64.80
1175;DHT22;576;48.418;10.074;2023-11-21T02:00:34;22.80;64.80
1175;DHT22;576;48.418;10.074;2023-11-21T02:03:03;22.80;64.80
1175;DHT22;576;48.418;10.074;2023-11-21T02:05:35;22.80;64.80
1175;DHT22;576;48.418;10.074;2023-11-21T02:08:03;22.80;64.70
1175;DHT22;576;48.418;10.074;2023-11-21T02:10:32;22.80;64.80
1175;DHT22;576;48.418;10.074;2023-11-21T02:13:00;22.70;64.80
1175;DHT22;576;48.418;10.074;2023-11-21T02:15:30;22.70;64.90
1175;DHT22;576;48.418;10.074;2023-11-21T02:17:58;22.70;64.90
1175;DHT22;576;48.418;10.074;2023-11-21T02:20:27;22.70;64.90
1175;DHT22;576;48.418;10.074;2023-11-21T02:22:58;22.70;64.90
1175;DHT22;576;48.418;10.074;2023-11-21T02:25:29;22.70;64.90
1175;DHT22;576;48.418;10.074;2023-11-21T02:28:00;22.70;64.80
1175;DHT22;576;48.418;10.074;2023-11-21T02:30:29;22.70;64.80
1175;DHT22;576;48.418;10.074;2023-11-21T02:32:59;22.70;64.80
1175;DHT22;576;48.418;10.074;2023-11-21T02:35:29;22.70;64.80
1175;DHT22;576;48.418;10.074;2023-11-21T02:38:01;22.70;64.80
1175;DHT22;576;48.418;10.074;2023-11-21T02:40:29;22.70;64.80
1175;DHT22;576;48.418;10.074;2023-11-21T02:42:58;22.70;64.80
1175;DHT22;576;48.418;10.074;2023-11-21T02:45:26;22.70;64.80
1175;DHT22;576;48.418;10.074;2023-11-21T02:47:55;22.60;64.80
1175;DHT22;576;48.418;10.074;2023-11-21T02:50:25;22.60;64.80
1175;DHT22;576;48.418;10.074;2023-11-21T02:52:54;22.60;64.80
1175;DHT22;576;48.418;10.074;2023-11-21T02:55:25;22.60;64.80
1175;DHT22;576;48.418;10.074;2023-11-21T02:57:54;22.60;64.80
1175;DHT22;576;48.418;10.074;2023-11-21T03:00:24;22.60;64.80
1175;DHT22;576;48.418;10.074;2023-11-21T03:02:55;22.60;64.80
1175;DHT22;576;48.418;10.074;2023-11-21T03:05:25;22.60;64.80
1175;DHT22;576;48.418;10.074;2023-11-21T03:07:53;22.60;64.80
1175;DHT22;576;48.418;10.074;2023-11-21T03:10:22;22.60;64.80
1175;DHT22;576;48.418;10.074;2023-11-21T03:12:52;22.60;64.80
1175;DHT22;576;48.418;10.074;2023-11-21T03:15:20;22.60;64.80
1175;DHT22;576;48.418;10.074;2023-11-21T03:17:48;22.60;64.70
1175;DHT22;576;48.418;10.074;2023-11-21T03:20:17;22.50;64.80
1175;DHT22;576;48.418;10.074;2023-11-21T03:22:45;22.50;64.90
1175;DHT22;576;48.418;10.074;2023-11-21T03:25:15;22.50;64.90
1175;DHT22;576;48.418;10.074;2023-11-21T03:27:44;22.50;64.90
1175;DHT22;576;48.418;10.074;2023-11-21T03:30:14;22.50;64.90
1175;DHT22;576;48.418;10.074;2023-11-21T03:32:43;22.50;64.90
1175;DHT22;576;48.418;10.074;2023-11-21T03:35:12;22.50;64.90
1175;DHT22;576;48.418;10.074;2023-11-21T03:37:40;22.50;64.90
1175;DHT22;576;48.418;10.074;2023-11-21T03:40:10;22.50;64.90
1175;DHT22;576;48.418;10.074;2023-11-21T03:42:39;22.50;64.90
1175;DHT22;576;48.418;10.074;2023-11-21T03:45:09;22.50;64.90
1175;DHT22;576;48.418;10.074;2023-11-21T03:47:41;22.50;65.00
1175;DHT22;576;48.418;10.074;2023-11-21T03:50:10;22.50;65.00
1175;DHT22;576;48.418;10.074;2023-11-21T03:52:38;22.50;65.00
1175;DHT22;576;48.418;10.074;2023-11-21T03:55:07;22.40;65.00
1175;DHT22;576;48.418;10.074;2023-11-21T03:57:40;22.40;65.10
1175;DHT22;576;48.418;10.074;2023-11-21T04:00:09;22.40;65.10
1175;DHT22;576;48.418;10.074;2023-11-21T04:02:42;22.40;65.10
1175;DHT22;576;48.418;10.074;2023-11-21T04:05:10;22.40;65.10
1175;DHT22;576;48.418;10.074;2023-11-21T04:07:39;22.40;65.10
1175;DHT22;576;48.418;10.074;2023-11-21T04:10:08;22.40;65.20
1175;DHT22;576;48.418;10.074;2023-11-21T04:12:39;22.40;65.10
1175;DHT22;576;48.418;10.074;2023-11-21T04:15:08;22.40;65.20
1175;DHT22;576;48.418;10.074;2023-11-21T04:17:37;22.40;65.10
1175;DHT22;576;48.418;10.074;2023-11-21T04:20:08;22.40;65.20
1175;DHT22;576;48.418;10.074;2023-11-21T04:22:38;22.40;65.20
1175;DHT22;576;48.418;10.074;2023-11-21T04:25:13;22.40;65.20
1175;DHT22;576;48.418;10.074;2023-11-21T04:27:44;22.40;65.20
1175;DHT22;576;48.418;10.074;2023-11-21T04:30:13;22.40;65.20
1175;DHT22;576;48.418;10.074;2023-11-21T04:32:41;22.40;65.30
1175;DHT22;576;48.418;10.074;2023-11-21T04:35:11;22.40;65.40
1175;DHT22;576;48.418;10.074;2023-11-21T04:37:39;22.30;65.40
1175;DHT22;576;48.418;10.074;2023-11-21T04:40:08;22.30;65.40
1175;DHT22;576;48.418;10.074;2023-11-21T04:42:37;22.40;65.40
1175;DHT22;576;48.418;10.074;2023-11-21T04:45:06;22.30;65.40
1175;DHT22;576;48.418;10.074;2023-11-21T04:47:38;22.30;65.30
1175;DHT22;576;48.418;10.074;2023-11-21T04:50:07;22.30;65.40
1175;DHT22;576;48.418;10.074;2023-11-21T04:52:36;22.30;65.40
1175;DHT22;576;48.418;10.074;2023-11-21T04:55:05;22.30;65.10
1175;DHT22;576;48.418;10.074;2023-11-21T04:57:37;22.30;65.40
1175;DHT22;576;48.418;10.074;2023-11-21T05:00:06;22.30;65.50
1175;DHT22;576;48.418;10.074;2023-11-21T05:02:35;22.30;65.40
1175;DHT22;576;48.418;10.074;2023-11-21T05:05:06;22.30;65.40
1175;DHT22;576;48.418;10.074;2023-11-21T05:07:34;22.30;65.40
1175;DHT22;576;48.418;10.074;2023-11-21T05:10:06;22.30;65.30
1175;DHT22;576;48.418;10.074;2023-11-21T05:12:39;22.40;65.50
1175;DHT22;576;48.418;10.074;2023-11-21T05:15:09;22.40;65.50
1175;DHT22;576;48.418;10.074;2023-11-21T05:17:37;22.40;65.30
1175;DHT22;576;48.418;10.074;2023-11-21T05:20:09;22.40;65.30
1175;DHT22;576;48.418;10.074;2023-11-21T05:22:38;22.40;65.20
1175;DHT22;576;48.418;10.074;2023-11-21T05:25:08;22.50;65.30
1175;DHT22;576;48.418;10.074;2023-11-21T05:27:38;22.50;65.20
1175;DHT22;576;48.418;10.074;2023-11-21T05:30:07;22.50;65.20
1175;DHT22;576;48.418;10.074;2023-11-21T05:32:39;22.50;65.00
1175;DHT22;576;48.418;10.074;2023-11-21T05:35:09;22.60;65.00
1175;DHT22;576;48.418;10.074;2023-11-21T05:37:42;22.60;65.10
1175;DHT22;576;48.418;10.074;2023-11-21T05:40:12;22.60;65.10
1175;DHT22;576;48.418;10.074;2023-11-21T05:42:40;22.60;65.10
1175;DHT22;576;48.418;10.074;2023-11-21T05:45:09;22.60;65.10
1175;DHT22;576;48.418;10.074;2023-11-21T05:47:41;22.70;65.00
1175;DHT22;576;48.418;10.074;2023-11-21T05:50:11;22.70;64.90
1175;DHT22;576;48.418;10.074;2023-11-21T05:52:41;22.70;64.80
1175;DHT22;576;48.418;10.074;2023-11-21T05:55:12;22.70;64.80
1175;DHT22;576;48.418;10.074;2023-11-21T05:57:41;22.80;64.80
1175;DHT22;576;48.418;10.074;2023-11-21T06:00:12;22.80;64.80
1175;DHT22;576;48.418;10.074;2023-11-21T06:02:45;22.80;64.70
1175;DHT22;576;48.418;10.074;2023-11-21T06:05:13;22.80;64.70
1175;DHT22;576;48.418;10.074;2023-11-21T06:07:42;22.80;64.70
1175;DHT22;576;48.418;10.074;2023-11-21T06:10:12;22.80;64.60
1175;DHT22;576;48.418;10.074;2023-11-21T06:12:41;22.90;64.60
1175;DHT22;576;48.418;10.074;2023-11-21T06:15:11;22.90;64.50
1175;DHT22;576;48.418;10.074;2023-11-21T06:17:41;22.90;64.50
1175;DHT22;576;48.418;10.074;2023-11-21T06:20:12;22.90;64.50
1175;DHT22;576;48.418;10.074;2023-11-21T06:22:42;22.90;64.50
1175;DHT22;576;48.418;10.074;2023-11-21T06:25:13;22.90;64.50
1175;DHT22;576;48.418;10.074;2023-11-21T06:27:43;22.90;64.50
1175;DHT22;576;48.418;10.074;2023-11-21T06:30:12;22.90;64.50
1175;DHT22;576;48.418;10.074;2023-11-21T06:32:43;22.90;64.50
1175;DHT22;576;48.418;10.074;2023-11-21T06:35:13;22.90;64.60
1175;DHT22;576;48.418;10.074;2023-11-21T06:37:43;22.90;64.50
1175;DHT22;576;48.418;10.074;2023-11-21T06:40:19;22.90;64.60
1175;DHT22;576;48.418;10.074;2023-11-21T06:42:48;22.90;64.50
1175;DHT22;576;48.418;10.074;2023-11-21T06:45:17;22.90;64.50
1175;DHT22;576;48.418;10.074;2023-11-21T06:47:45;22.90;64.40
1175;DHT22;576;48.418;10.074;2023-11-21T06:50:14;22.90;64.60
1175;DHT22;576;48.418;10.074;2023-11-21T06:52:42;22.90;64.80
1175;DHT22;576;48.418;10.074;2023-11-21T06:55:11;22.90;65.00
1175;DHT22;576;48.418;10.074;2023-11-21T06:57:41;22.90;65.20
1175;DHT22;576;48.418;10.074;2023-11-21T07:00:10;22.90;65.30
1175;DHT22;576;48.418;10.074;2023-11-21T07:02:39;22.90;65.40
1175;DHT22;576;48.418;10.074;2023-11-21T07:05:08;22.90;65.50
1175;DHT22;576;48.418;10.074;2023-11-21T07:07:36;22.90;65.60
1175;DHT22;576;48.418;10.074;2023-11-21T07:10:05;22.90;65.80
1175;DHT22;576;48.418;10.074;2023-11-21T07:12:34;22.90;65.90
1175;DHT22;576;48.418;10.074;2023-11-21T07:15:05;22.90;66.00
1175;DHT22;576;48.418;10.074;2023-11-21T07:17:36;22.90;66.40
1175;DHT22;576;48.418;10.074;2023-11-21T07:20:08;23.00;67.00
1175;DHT22;576;48.418;10.074;2023-11-21T07:22:38;23.00;67.40
1175;DHT22;576;48.418;10.074;2023-11-21T07:25:07;23.00;67.60
1175;DHT22;576;48.418;10.074;2023-11-21T07:27:36;23.10;67.70
1175;DHT22;576;48.418;10.074;2023-11-21T07:30:07;23.10;67.70
1175;DHT22;576;48.418;10.074;2023-11-21T07:32:37;23.10;67.70
1175;DHT22;576;48.418;10.074;2023-11-21T07:35:08;23.20;67.60
1175;DHT22;576;48.418;10.074;2023-11-21T07:37:36;23.20;67.50
1175;DHT22;576;48.418;10.074;2023-11-21T07:40:06;23.30;67.40
1175;DHT22;576;48.418;10.074;2023-11-21T07:42:36;23.30;67.30
1175;DHT22;576;48.418;10.074;2023-11-21T07:45:07;23.30;67.30
1175;DHT22;576;48.418;10.074;2023-11-21T07:47:35;23.30;67.20
1175;DHT22;576;48.418;10.074;2023-11-21T07:50:04;23.30;67.20
1175;DHT22;576;48.418;10.074;2023-11-21T07:52:34;23.30;67.10
1175;DHT22;576;48.418;10.074;2023-11-21T07:55:03;23.40;67.10
1175;DHT22;576;48.418;10.074;2023-11-21T07:57:32;23.40;67.10
1175;DHT22;576;48.418;10.074;2023-11-21T08:00:00;23.40;67.00
1175;DHT22;576;48.418;10.074;2023-11-21T08:02:39;23.40;67.00
1175;DHT22;576;48.418;10.074;2023-11-21T08:05:09;23.40;67.00
1175;DHT22;576;48.418;10.074;2023-11-21T08:07:50;23.40;66.90
1175;DHT22;576;48.418;10.074;2023-11-21T08:10:19;23.40;66.80
1175;DHT22;576;48.418;10.074;2023-11-21T08:12:48;23.40;66.80
1175;DHT22;576;48.418;10.074;2023-11-21T08:15:17;23.50;66.70
1175;DHT22;576;48.418;10.074;2023-11-21T08:17:47;23.50;66.70
1175;DHT22;576;48.418;10.074;2023-11-21T08:20:15;23.50;66.60
1175;DHT22;576;48.418;10.074;2023-11-21T08:22:45;23.50;66.30
1175;DHT22;576;48.418;10.074;2023-11-21T08:25:15;23.50;66.30
1175;DHT22;576;48.418;10.074;2023-11-21T08:27:44;23.50;66.50
1175;DHT22;576;48.418;10.074;2023-11-21T08:30:13;23.50;66.20
1175;DHT22;576;48.418;10.074;2023-11-21T08:32:43;23.50;66.30
1175;DHT22;576;48.418;10.074;2023-11-21T08:35:13;23.50;66.40
1175;DHT22;576;48.418;10.074;2023-11-21T08:37:43;23.50;65.90
1175;DHT22;576;48.418;10.074;2023-11-21T08:40:11;23.50;65.90
1175;DHT22;576;48.418;10.074;2023-11-21T08:42:44;23.50;66.10
1175;DHT22;576;48.418;10.074;2023-11-21T08:45:13;23.60;66.10
1175;DHT22;576;48.418;10.074;2023-11-21T08:47:42;23.60;66.10
1175;DHT22;576;48.418;10.074;2023-11-21T08:50:12;23.60;66.10
1175;DHT22;576;48.418;10.074;2023-11-21T08:52:42;23.60;65.70
1175;DHT22;576;48.418;10.074;2023-11-21T08:55:10;23.60;65.70
1175;DHT22;576;48.418;10.074;2023-11-21T08:57:40;23.70;65.00
1175;DHT22;576;48.418;10.074;2023-11-21T09:00:09;23.70;65.40
1175;DHT22;576;48.418;10.074;2023-11-21T09:02:39;23.70;65.00
1175;DHT22;576;48.418;10.074;2023-11-21T09:05:09;23.80;65.20
1175;DHT22;576;48.418;10.074;2023-11-21T09:07:40;23.80;65.10
1175;DHT22;576;48.418;10.074;2023-11-21T09:10:10;23.90;64.60
1175;DHT22;576;48.418;10.074;2023-11-21T09:12:38;23.90;64.90
1175;DHT22;576;48.418;10.074;2023-11-21T09:15:07;23.90;64.50
1175;DHT22;576;48.418;10.074;2023-11-21T09:17:38;24.00;64.50
1175;DHT22;576;48.418;10.074;2023-11-21T09:20:08;24.00;64.30
1175;DHT22;576;48.418;10.074;2023-11-21T09:22:39;24.00;64.50
1175;DHT22;576;48.418;10.074;2023-11-21T09:25:08;24.00;64.00
1175;DHT22;576;48.418;10.074;2023-11-21T09:27:36;24.00;64.50
1175;DHT22;576;48.418;10.074;2023-11-21T09:30:05;24.00;64.50
1175;DHT22;576;48.418;10.074;2023-11-21T09:32:38;24.10;64.10
1175;DHT22;576;48.418;10.074;2023-11-21T09:35:08;24.10;64.10
1175;DHT22;576;48.418;10.074;2023-11-21T09:37:38;24.10;64.30
1175;DHT22;576;48.418;10.074;2023-11-21T09:40:10;24.10;64.20
1175;DHT22;576;48.418;10.074;2023-11-21T09:42:46;24.20;64.10
1175;DHT22;576;48.418;10.074;2023-11-21T09:45:23;24.20;64.10
1175;DHT22;576;48.418;10.074;2023-11-21T09:47:53;24.20;64.10
1175;DHT22;576;48.418;10.074;2023-11-21T09:50:23;24.20;64.00
1175;DHT22;576;48.418;10.074;2023-11-21T09:53:02;24.30;63.90
1175;DHT22;576;48.418;10.074;2023-11-21T09:55:35;24.30;63.80
1175;DHT22;576;48.418;10.074;2023-11-21T09:58:05;24.30;63.70
1175;DHT22;576;48.418;10.074;2023-11-21T10:00:35;24.40;63.70
1175;DHT22;576;48.418;10.074;2023-11-21T10:03:03;24.40;63.60
1175;DHT22;576;48.418;10.074;2023-11-21T10:05:31;24.40;63.50
1175;DHT22;576;48.418;10.074;2023-11-21T10:08:06;24.50;63.50
1175;DHT22;576;48.418;10.074;2023-11-21T10:10:37;24.50;63.50
1175;DHT22;576;48.418;10.074;2023-11-21T10:13:11;24.60;63.40
1175;DHT22;576;48.418;10.074;2023-11-21T10:15:44;24.70;63.30
1175;DHT22;576;48.418;10.074;2023-11-21T10:18:17;24.80;63.10
1175;DHT22;576;48.418;10.074;2023-11-21T10:20:45;24.90;62.90
1175;DHT22;576;48.418;10.074;2023-11-21T10:23:22;25.00;62.60
1175;DHT22;576;48.418;10.074;2023-11-21T10:25:51;25.00;62.40
1175;DHT22;576;48.418;10.074;2023-11-21T10:28:21;25.10;62.20
1175;DHT22;576;48.418;10.074;2023-11-21T10:30:49;25.10;62.10
1175;DHT22;576;48.418;10.074;2023-11-21T10:33:17;25.20;62.00
1175;DHT22;576;48.418;10.074;2023-11-21T10:35:57;25.30;61.90
1175;DHT22;576;48.418;10.074;2023-11-21T10:38:33;25.40;61.60
1175;DHT22;576;48.418;10.074;2023-11-21T10:41:11;25.60;61.30
1175;DHT22;576;48.418;10.074;2023-11-21T10:43:43;25.70;60.80
1175;DHT22;576;48.418;10.074;2023-11-21T10:46:12;25.90;60.60
1175;DHT22;576;48.418;10.074;2023-11-21T10:48:41;25.90;60.30
1175;DHT22;576;48.418;10.074;2023-11-21T10:51:10;26.00;60.10
1175;DHT22;576;48.418;10.074;2023-11-21T10:53:40;26.10;60.10
1175;DHT22;576;48.418;10.074;2023-11-21T10:56:14;26.10;59.90
1175;DHT22;576;48.418;10.074;2023-11-21T10:58:45;26.20;59.80
1175;DHT22;576;48.418;10.074;2023-11-21T11:01:17;26.30;59.80
1175;DHT22;576;48.418;10.074;2023-11-21T11:03:46;26.30;59.70
1175;DHT22;576;48.418;10.074;2023-11-21T11:06:16;26.40;59.60
1175;DHT22;576;48.418;10.074;2023-11-21T11:08:46;26.50;59.40
1175;DHT22;576;48.418;10.074;2023-11-21T11:11:16;26.50;59.30
1175;DHT22;576;48.418;10.074;2023-11-21T11:13:45;26.60;59.20
1175;DHT22;576;48.418;10.074;2023-11-21T11:16:14;26.70;59.00
1175;DHT22;576;48.418;10.074;2023-11-21T11:18:44;26.70;59.00
1175;DHT22;576;48.418;10.074;2023-11-21T11:21:23;26.70;58.80
1175;DHT22;576;48.418;10.074;2023-11-21T11:24:07;26.50;58.90
1175;DHT22;576;48.418;10.074;2023-11-21T11:26:45;26.30;59.40
1175;DHT22;576;48.418;10.074;2023-11-21T11:29:25;26.10;59.70
1175;DHT22;576;48.418;10.074;2023-11-21T11:32:04;25.90;60.00
1175;DHT22;576;48.418;10.074;2023-11-21T11:34:38;25.80;60.30
1175;DHT22;576;48.418;10.074;2023-11-21T11:37:09;25.60;60.70
1175;DHT22;576;48.418;10.074;2023-11-21T11:39:40;25.50;60.90
1175;DHT22;576;48.418;10.074;2023-11-21T11:42:13;25.40;61.00
1175;DHT22;576;48.418;10.074;2023-11-21T11:44:52;25.30;61.20
1175;DHT22;576;48.418;10.074;2023-11-21T11:47:24;25.30;61.30
1175;DHT22;576;48.418;10.074;2023-11-21T11:49:57;25.20;61.40
1175;DHT22;576;48.418;10.074;2023-11-21T11:52:39;25.10;61.50
1175;DHT22;576;48.418;10.074;2023-11-21T11:55:11;25.10;61.50
1175;DHT22;576;48.418;10.074;2023-11-21T11:57:42;25.00;61.50
1175;DHT22;576;48.418;10.074;2023-11-21T12:00:12;25.00;61.60
1175;DHT22;576;48.418;10.074;2023-11-21T12:02:45;24.90;61.60
1175;DHT22;576;48.418;10.074;2023-11-21T12:05:15;24.90;61.70
1175;DHT22;576;48.418;10.074;2023-11-21T12:07:47;24.90;61.80
1175;DHT22;576;48.418;10.074;2023-11-21T12:10:19;24.80;62.00
1175;DHT22;576;48.418;10.074;2023-11-21T12:12:48;24.70;62.20
1175;DHT22;576;48.418;10.074;2023-11-21T12:15:18;24.70;62.40
1175;DHT22;576;48.418;10.074;2023-11-21T12:17:47;24.70;62.50
1175;DHT22;576;48.418;10.074;2023-11-21T12:20:18;24.60;62.60
1175;DHT22;576;48.418;10.074;2023-11-21T12:22:49;24.60;62.80
1175;DHT22;576;48.418;10.074;2023-11-21T12:25:21;24.60;62.90
1175;DHT22;576;48.418;10.074;2023-11-21T12:27:51;24.60;63.00
1175;DHT22;576;48.418;10.074;2023-11-21T12:30:20;24.50;63.10
1175;DHT22;576;48.418;10.074;2023-11-21T12:32:50;24.50;63.30
1175;DHT22;576;48.418;10.074;2023-11-21T12:35:21;24.50;63.40
1175;DHT22;576;48.418;10.074;2023-11-21T12:37:49;24.40;63.50
1175;DHT22;576;48.418;10.074;2023-11-21T12:40:19;24.40;63.50
1175;DHT22;576;48.418;10.074;2023-11-21T12:42:52;24.40;63.60
1175;DHT22;576;48.418;10.074;2023-11-21T12:45:21;24.40;63.60
1175;DHT22;576;48.418;10.074;2023-11-21T12:47:55;24.40;63.60
1175;DHT22;576;48.418;10.074;2023-11-21T12:50:27;24.40;63.60
1175;DHT22;576;48.418;10.074;2023-11-21T12:53:00;24.40;63.60
1175;DHT22;576;48.418;10.074;2023-11-21T12:55:32;24.40;63.60
1175;DHT22;576;48.418;10.074;2023-11-21T12:58:06;24.40;63.60
1175;DHT22;576;48.418;10.074;2023-11-21T13:01:02;24.40;63.60
1175;DHT22;576;48.418;10.074;2023-11-21T13:03:31;24.40;63.60
1175;DHT22;576;48.418;10.074;2023-11-21T13:06:00;24.40;63.60
1175;DHT22;576;48.418;10.074;2023-11-21T13:08:29;24.30;63.60
1175;DHT22;576;48.418;10.074;2023-11-21T13:11:01;24.30;63.60
1175;DHT22;576;48.418;10.074;2023-11-21T13:13:30;24.40;63.60
1175;DHT22;576;48.418;10.074;2023-11-21T13:16:00;24.40;63.80
1175;DHT22;576;48.418;10.074;2023-11-21T13:18:31;24.40;64.00
1175;DHT22;576;48.418;10.074;2023-11-21T13:21:02;24.50;64.10
1175;DHT22;576;48.418;10.074;2023-11-21T13:23:34;24.50;64.10
1175;DHT22;576;48.418;10.074;2023-11-21T13:26:04;24.60;64.00
1175;DHT22;576;48.418;10.074;2023-11-21T13:28:34;24.60;64.00
1175;DHT22;576;48.418;10.074;2023-11-21T13:31:05;24.70;64.00
1175;DHT22;576;48.418;10.074;2023-11-21T13:33:47;24.80;63.90
1175;DHT22;576;48.418;10.074;2023-11-21T13:36:22;24.80;63.80
1175;DHT22;576;48.418;10.074;2023-11-21T13:38:51;24.90;63.90
1175;DHT22;576;48.418;10.074;2023-11-21T13:41:22;24.90;63.80
1175;DHT22;576;48.418;10.074;2023-11-21T13:43:55;24.90;63.80
1175;DHT22;576;48.418;10.074;2023-11-21T13:46:30;25.00;63.80
1175;DHT22;576;48.418;10.074;2023-11-21T13:49:04;25.00;63.70
1175;DHT22;576;48.418;10.074;2023-11-21T13:51:37;25.00;63.70
1175;DHT22;576;48.418;10.074;2023-11-21T13:54:08;25.00;63.70
1175;DHT22;576;48.418;10.074;2023-11-21T13:56:41;25.00;63.70
1175;DHT22;576;48.418;10.074;2023-11-21T13:59:12;25.10;63.60
1175;DHT22;576;48.418;10.074;2023-11-21T14:01:48;25.10;63.40
1175;DHT22;576;48.418;10.074;2023-11-21T14:04:24;25.10;63.30
1175;DHT22;576;48.418;10.074;2023-11-21T14:07:21;25.10;63.00
1175;DHT22;576;48.418;10.074;2023-11-21T14:10:03;25.00;62.80
1175;DHT22;576;48.418;10.074;2023-11-21T14:12:33;25.00;62.80
1175;DHT22;576;48.418;10.074;2023-11-21T14:15:06;24.90;62.80
1175;DHT22;576;48.418;10.074;2023-11-21T14:17:37;24.80;62.80
1175;DHT22;576;48.418;10.074;2023-11-21T14:20:09;24.80;62.80
1175;DHT22;576;48.418;10.074;2023-11-21T14:22:43;24.70;62.80
1175;DHT22;576;48.418;10.074;2023-11-21T14:25:12;24.70;62.90
1175;DHT22;576;48.418;10.074;2023-11-21T14:27:42;24.70;62.90
1175;DHT22;576;48.418;10.074;2023-11-21T14:30:11;24.70;63.10
1175;DHT22;576;48.418;10.074;2023-11-21T14:32:40;24.70;63.30
1175;DHT22;576;48.418;10.074;2023-11-21T14:35:09;24.70;63.20
1175;DHT22;576;48.418;10.074;2023-11-21T14:37:37;24.80;63.20
1175;DHT22;576;48.418;10.074;2023-11-21T14:40:07;24.80;63.30
1175;DHT22;576;48.418;10.074;2023-11-21T14:42:35;24.90;63.30
1175;DHT22;576;48.418;10.074;2023-11-21T14:45:10;24.90;63.30
1175;DHT22;576;48.418;10.074;2023-11-21T14:47:39;24.90;63.30
1175;DHT22;576;48.418;10.074;2023-11-21T14:50:13;25.00;63.30
1175;DHT22;576;48.418;10.074;2023-11-21T14:53:16;25.00;63.40
1175;DHT22;576;48.418;10.074;2023-11-21T14:55:52;25.10;63.40
1175;DHT22;576;48.418;10.074;2023-11-21T14:58:26;25.10;63.40
1175;DHT22;576;48.418;10.074;2023-11-21T15:00:56;25.10;63.30
1175;DHT22;576;48.418;10.074;2023-11-21T15:03:27;25.20;63.30
1175;DHT22;576;48.418;10.074;2023-11-21T15:06:10;25.10;63.40
1175;DHT22;576;48.418;10.074;2023-11-21T15:08:55;25.10;63.10
1175;DHT22;576;48.418;10.074;2023-11-21T15:11:41;25.10;63.00
1175;DHT22;576;48.418;10.074;2023-11-21T15:14:09;25.10;63.00
1175;DHT22;576;48.418;10.074;2023-11-21T15:16:39;25.20;63.00
1175;DHT22;576;48.418;10.074;2023-11-21T15:19:10;25.20;63.10
1175;DHT22;576;48.418;10.074;2023-11-21T15:21:44;25.20;63.10
1175;DHT22;576;48.418;10.074;2023-11-21T15:24:13;25.20;63.20
1175;DHT22;576;48.418;10.074;2023-11-21T15:26:41;25.20;63.20
1175;DHT22;576;48.418;10.074;2023-11-21T15:29:09;25.20;63.30
1175;DHT22;576;48.418;10.074;2023-11-21T15:31:39;25.20;63.30
1175;DHT22;576;48.418;10.074;2023-11-21T15:34:11;25.10;63.40
1175;DHT22;576;48.418;10.074;2023-11-21T15:36:39;25.10;63.40
1175;DHT22;576;48.418;10.074;2023-11-21T15:39:08;25.10;63.50
1175;DHT22;576;48.418;10.074;2023-11-21T15:41:38;25.10;63.60
1175;DHT22;576;48.418;10.074;2023-11-21T15:44:07;25.10;63.60
1175;DHT22;576;48.418;10.074;2023-11-21T15:46:38;25.10;63.60
1175;DHT22;576;48.418;10.074;2023-11-21T15:49:10;25.10;63.60
1175;DHT22;576;48.418;10.074;2023-11-21T15:51:43;25.10;63.60
1175;DHT22;576;48.418;10.074;2023-11-21T15:54:13;25.10;63.70
1175;DHT22;576;48.418;10.074;2023-11-21T15:56:41;25.10;63.80
1175;DHT22;576;48.418;10.074;2023-11-21T15:59:11;25.10;63.90
1175;DHT22;576;48.418;10.074;2023-11-21T16:01:42;25.00;63.50
1175;DHT22;576;48.418;10.074;2023-11-21T16:04:14;25.00;63.10
1175;DHT22;576;48.418;10.074;2023-11-21T16:06:44;24.90;62.90
1175;DHT22;576;48.418;10.074;2023-11-21T16:09:12;24.80;62.80
1175;DHT22;576;48.418;10.074;2023-11-21T16:11:49;24.80;62.80
1175;DHT22;576;48.418;10.074;2023-11-21T16:14:20;24.80;62.90
1175;DHT22;576;48.418;10.074;2023-11-21T16:16:54;24.70;62.90
1175;DHT22;576;48.418;10.074;2023-11-21T16:19:23;24.70;63.10
1175;DHT22;576;48.418;10.074;2023-11-21T16:21:51;24.60;63.20
1175;DHT22;576;48.418;10.074;2023-11-21T16:24:19;24.60;63.20